Time;durP1;ratioP1;P1;durP2;ratioP2;P2;SDS_P1;SDS_P2;PMS_P1;PMS_P2;Temp;Humidity;BMP_temperature;BMP_pressure;BME280_temperature;BME280_humidity;BME280_pressure;Samples;Min_cycle;Max_cycle;Signal;HPM_P1;HPM_P2
2024/04/18 00:01:29;;;;;;;7.37;4.60;;;7.50;99.90;;;;;;4419527;26;20070;-59
2024/04/18 00:03:31;;;;;;;7.43;4.20;;;7.50;99.90;;;;;;4420427;26;20370;-59
2024/04/18 00:05:32;;;;;;;5.57;4.63;;;7.50;99.90;;;;;;4418598;26;20421;-59
2024/04/18 00:07:34;;;;;;;5.10;4.23;;;7.50;99.90;;;;;;4420694;26;20009;-59
2024/04/18 00:09:35;;;;;;;6.33;4.73;;;7.50;99.90;;;;;;4419107;26;20082;-58
2024/04/18 00:11:36;;;;;;;8.77;4.17;;;7.50;99.90;;;;;;4418542;26;20013;-59
2024/04/18 00:13:37;;;;;;;5.07;4.03;;;7.50;99.90;;;;;;4419612;26;20406;-57
2024/04/18 00:15:39;;;;;;;5.60;4.00;;;7.50;99.90;;;;;;4419912;26;20008;-58
2024/04/18 00:17:40;;;;;;;4.60;4.03;;;7.50;99.90;;;;;;4419847;26;20056;-61
2024/04/18 00:19:41;;;;;;;8.17;4.27;;;7.50;99.90;;;;;;4420334;26;20066;-59
2024/04/18 00:21:42;;;;;;;7.40;4.20;;;7.50;99.90;;;;;;4419655;26;20290;-60
2024/04/18 00:23:44;;;;;;;6.00;3.93;;;7.50;99.90;;;;;;4420910;26;20074;-59
2024/04/18 00:25:45;;;;;;;7.03;3.53;;;7.50;99.90;;;;;;4419011;26;20001;-61
2024/04/18 00:27:46;;;;;;;4.53;3.53;;;7.50;99.90;;;;;;4419146;26;20009;-58
2024/04/18 00:29:47;;;;;;;3.67;2.97;;;7.40;99.90;;;;;;4419809;26;20397;-56
2024/04/18 00:31:49;;;;;;;4.57;3.27;;;7.30;99.90;;;;;;4419088;26;20452;-60
2024/04/18 00:33:51;;;;;;;5.10;3.07;;;7.30;99.90;;;;;;4419616;26;20009;-56
2024/04/18 00:35:52;;;;;;;4.20;3.10;;;7.20;99.90;;;;;;4419439;26;20051;-57
2024/04/18 00:37:53;;;;;;;4.70;2.80;;;7.20;99.90;;;;;;4420421;26;20004;-58
2024/04/18 00:39:54;;;;;;;4.10;3.20;;;7.20;99.90;;;;;;4418268;26;20437;-60
2024/04/18 00:41:55;;;;;;;3.40;3.10;;;7.20;99.90;;;;;;4420889;26;20005;-58
2024/04/18 00:43:57;;;;;;;6.27;3.10;;;7.20;99.90;;;;;;4419219;26;20013;-59
2024/04/18 00:46:00;;;;;;;4.07;2.83;;;7.20;99.90;;;;;;4420627;26;20090;-61
2024/04/18 00:48:02;;;;;;;4.07;2.83;;;7.10;99.90;;;;;;4419843;26;20016;-60
2024/04/18 00:50:07;;;;;;;5.83;3.20;;;7.10;99.90;;;;;;4419751;26;19997;-61
2024/04/18 00:52:17;;;;;;;4.27;2.83;;;7.10;99.90;;;;;;4419490;26;20457;-61
2024/04/18 00:54:18;;;;;;;3.47;3.17;;;7.10;99.90;;;;;;4419606;26;20062;-60
2024/04/18 00:56:20;;;;;;;4.53;3.33;;;7.10;99.90;;;;;;4419448;26;20094;-60
2024/04/18 00:58:22;;;;;;;3.90;3.50;;;7.10;99.90;;;;;;4419720;26;20013;-60
2024/04/18 01:00:24;;;;;;;4.53;3.50;;;7.10;99.90;;;;;;4418071;26;20406;-58
2024/04/18 01:02:27;;;;;;;6.07;3.47;;;7.10;99.90;;;;;;4418581;26;20004;-60
2024/04/18 01:04:28;;;;;;;4.10;3.70;;;7.10;99.90;;;;;;4418804;26;20009;-60
2024/04/18 01:06:29;;;;;;;4.70;3.07;;;7.10;99.90;;;;;;4420284;26;20009;-60
2024/04/18 01:08:31;;;;;;;4.33;3.30;;;7.20;99.90;;;;;;4418997;26;20001;-60
2024/04/18 01:10:32;;;;;;;4.10;3.47;;;7.10;99.90;;;;;;4418626;26;20422;-59
2024/04/18 01:12:33;;;;;;;5.13;3.10;;;7.10;99.90;;;;;;4414496;26;20009;-60
2024/04/18 01:14:34;;;;;;;4.40;3.43;;;7.20;99.90;;;;;;4419399;26;19997;-59
2024/04/18 01:16:35;;;;;;;3.47;3.17;;;7.20;99.90;;;;;;4420163;26;20078;-59
2024/04/18 01:18:37;;;;;;;3.17;2.87;;;7.20;99.90;;;;;;4419668;26;20446;-60
2024/04/18 01:20:38;;;;;;;5.30;3.63;;;7.20;99.90;;;;;;4419388;26;20069;-60
2024/04/18 01:22:39;;;;;;;4.90;3.50;;;7.10;99.90;;;;;;4418418;26;20069;-60
2024/04/18 01:24:41;;;;;;;4.60;3.13;;;7.10;99.90;;;;;;4419629;26;20395;-59
2024/04/18 01:26:42;;;;;;;4.87;2.63;;;7.10;99.90;;;;;;4418393;26;20012;-60
2024/04/18 01:28:43;;;;;;;5.00;3.07;;;7.10;99.90;;;;;;4420219;26;20005;-59
2024/04/18 01:30:45;;;;;;;3.43;3.10;;;7.10;99.90;;;;;;4418116;26;20391;-59
2024/04/18 01:32:46;;;;;;;4.30;3.07;;;7.10;99.90;;;;;;4418577;26;20078;-60
2024/04/18 01:34:49;;;;;;;3.20;2.80;;;7.10;99.90;;;;;;4417881;26;20009;-59
2024/04/18 01:36:51;;;;;;;6.60;2.77;;;7.00;99.90;;;;;;4419956;26;20008;-58
2024/04/18 01:38:52;;;;;;;2.70;2.50;;;7.00;99.90;;;;;;4419126;26;20051;-60
2024/04/18 01:40:54;;;;;;;3.13;2.67;;;7.00;99.90;;;;;;4418938;26;20509;-60
2024/04/18 01:42:55;;;;;;;3.17;2.40;;;7.00;99.90;;;;;;4419338;26;20001;-61
2024/04/18 01:44:56;;;;;;;3.73;2.63;;;7.00;99.90;;;;;;4419014;26;20427;-60
2024/04/18 01:46:57;;;;;;;7.07;2.23;;;6.90;99.90;;;;;;4419553;26;20411;-60
2024/04/18 01:48:58;;;;;;;6.17;3.23;;;6.90;99.90;;;;;;4418519;26;20009;-60
2024/04/18 01:51:02;;;;;;;2.13;1.93;;;6.90;99.90;;;;;;4420078;26;20066;-60
2024/04/18 01:53:04;;;;;;;2.90;2.10;;;6.90;99.90;;;;;;4418535;26;20008;-56
2024/04/18 01:55:06;;;;;;;3.53;2.23;;;6.90;99.90;;;;;;4419219;26;20559;-60
2024/04/18 01:57:08;;;;;;;3.77;2.50;;;6.90;99.90;;;;;;4418763;26;19997;-60
2024/04/18 01:59:09;;;;;;;4.07;2.20;;;6.90;99.90;;;;;;4419966;26;20431;-61
2024/04/18 02:01:10;;;;;;;4.63;2.10;;;6.90;99.90;;;;;;4417747;26;20008;-60
2024/04/18 02:03:11;;;;;;;2.73;2.10;;;6.90;99.90;;;;;;4419612;26;20013;-60
2024/04/18 02:05:13;;;;;;;2.03;1.83;;;6.90;99.90;;;;;;4417973;26;20070;-60
2024/04/18 02:07:14;;;;;;;2.13;1.83;;;6.90;99.90;;;;;;4419799;26;19997;-60
2024/04/18 02:09:16;;;;;;;2.23;1.90;;;6.90;99.90;;;;;;4418586;26;20092;-60
2024/04/18 02:11:17;;;;;;;2.37;1.97;;;6.90;99.90;;;;;;4419206;26;20005;-60
2024/04/18 02:13:18;;;;;;;1.77;1.67;;;6.90;99.90;;;;;;4416459;26;20409;-58
2024/04/18 02:15:19;;;;;;;3.63;1.97;;;6.90;99.90;;;;;;4418687;26;20847;-59
2024/04/18 02:17:21;;;;;;;1.80;1.70;;;6.80;99.90;;;;;;4419116;26;20086;-60
2024/04/18 02:19:22;;;;;;;1.77;1.53;;;6.80;99.90;;;;;;4418063;26;20074;-59
2024/04/18 02:21:24;;;;;;;1.60;1.50;;;6.80;99.90;;;;;;4445437;26;19996;-60
2024/04/18 02:23:26;;;;;;;2.27;1.60;;;6.70;99.90;;;;;;4417911;26;20009;-59
2024/04/18 02:25:27;;;;;;;1.67;1.57;;;6.70;99.90;;;;;;4419380;26;20452;-60
2024/04/18 02:27:28;;;;;;;2.80;1.60;;;6.70;99.90;;;;;;4416975;26;20498;-60
2024/04/18 02:29:29;;;;;;;2.47;1.53;;;6.70;99.90;;;;;;4418254;26;20066;-58
2024/04/18 02:31:31;;;;;;;1.80;1.70;;;6.70;99.90;;;;;;4416750;26;20009;-60
2024/04/18 02:33:32;;;;;;;1.47;1.37;;;6.70;99.90;;;;;;4421146;26;20013;-59
2024/04/18 02:35:34;;;;;;;2.70;1.20;;;6.70;99.90;;;;;;4419469;26;20078;-59
2024/04/18 02:37:35;;;;;;;2.13;1.20;;;6.70;99.90;;;;;;4421837;26;20390;-60
2024/04/18 02:39:37;;;;;;;2.33;1.20;;;6.70;99.90;;;;;;4420306;26;20074;-60
2024/04/18 02:41:38;;;;;;;1.50;1.40;;;6.60;99.90;;;;;;4447352;26;20077;-60
2024/04/18 02:43:39;;;;;;;2.47;1.00;;;6.60;99.90;;;;;;4420058;26;20406;-58
2024/04/18 02:45:41;;;;;;;2.60;1.50;;;6.60;99.90;;;;;;4420818;26;20452;-58
2024/04/18 02:47:42;;;;;;;1.40;1.10;;;6.70;99.90;;;;;;4420950;26;20013;-59
2024/04/18 02:49:43;;;;;;;1.20;1.10;;;6.60;99.90;;;;;;4421044;26;20094;-59
2024/04/18 02:51:45;;;;;;;1.53;1.40;;;6.60;99.90;;;;;;4421770;26;20005;-59
2024/04/18 02:53:46;;;;;;;1.53;1.43;;;6.60;99.90;;;;;;4420228;26;20072;-60
2024/04/18 02:55:47;;;;;;;1.60;1.50;;;6.60;99.90;;;;;;4421933;26;20001;-59
2024/04/18 02:57:48;;;;;;;2.33;1.37;;;6.60;99.90;;;;;;4420684;26;20008;-58
2024/04/18 02:59:50;;;;;;;1.30;1.20;;;6.60;99.90;;;;;;4422270;26;20008;-57
2024/04/18 03:01:51;;;;;;;2.07;1.57;;;6.50;99.90;;;;;;4419171;26;20244;-56
2024/04/18 03:03:52;;;;;;;1.43;1.33;;;6.50;99.90;;;;;;4421554;26;20009;-60
2024/04/18 03:06:03;;;;;;;1.93;1.60;;;6.60;99.90;;;;;;4420341;26;20440;-60
2024/04/18 03:08:05;;;;;;;1.70;1.60;;;6.50;99.90;;;;;;4421984;26;20013;-59
2024/04/18 03:10:06;;;;;;;1.50;1.33;;;6.60;99.90;;;;;;4419515;26;20521;-59
2024/04/18 03:12:07;;;;;;;2.03;1.57;;;6.50;99.90;;;;;;4421614;26;20069;-60
2024/04/18 03:14:09;;;;;;;3.27;1.20;;;6.50;99.90;;;;;;4419419;26;20556;-59
2024/04/18 03:16:14;;;;;;;6.43;3.30;;;6.60;99.90;;;;;;4419458;26;20016;-60
2024/04/18 03:18:15;;;;;;;7.20;3.00;;;6.60;99.90;;;;;;4420786;26;20001;-60
2024/04/18 03:20:16;;;;;;;2.33;1.73;;;6.60;99.90;;;;;;4421343;26;20005;-60
2024/04/18 03:22:17;;;;;;;2.00;1.40;;;6.60;99.90;;;;;;4420180;26;20013;-59
2024/04/18 03:24:23;;;;;;;2.23;1.60;;;6.60;99.90;;;;;;4419754;26;20535;-59
2024/04/18 03:26:24;;;;;;;1.60;1.50;;;6.60;99.90;;;;;;4420202;26;20074;-58
2024/04/18 03:28:25;;;;;;;3.53;1.50;;;6.60;99.90;;;;;;4419321;26;20009;-59
2024/04/18 03:30:27;;;;;;;2.50;1.63;;;6.60;99.90;;;;;;4420296;26;20070;-57
2024/04/18 03:32:28;;;;;;;4.00;1.47;;;6.60;99.90;;;;;;4419918;26;20012;-59
2024/04/18 03:34:29;;;;;;;4.13;2.07;;;6.60;99.90;;;;;;4421048;26;20024;-61
2024/04/18 03:36:34;;;;;;;1.73;1.50;;;6.60;99.90;;;;;;4418972;26;20419;-60
2024/04/18 03:38:35;;;;;;;1.97;1.77;;;6.50;99.90;;;;;;4391782;27;19998;-60
2024/04/18 03:40:38;;;;;;;2.63;2.17;;;6.60;99.90;;;;;;4390978;27;20071;-60
2024/04/18 03:42:39;;;;;;;4.60;2.23;;;6.60;99.90;;;;;;4392944;27;20452;-59
2024/04/18 03:44:41;;;;;;;2.37;1.90;;;6.60;99.90;;;;;;4390843;27;20010;-59
2024/04/18 03:46:42;;;;;;;2.20;1.87;;;6.60;99.90;;;;;;4415953;26;20009;-60
2024/04/18 03:48:43;;;;;;;2.57;1.87;;;6.60;99.90;;;;;;4420455;26;20082;-60
2024/04/18 03:50:44;;;;;;;3.57;2.20;;;6.60;99.90;;;;;;4420198;26;20055;-61
2024/04/18 03:52:46;;;;;;;3.83;2.10;;;6.60;99.90;;;;;;4420423;26;20517;-60
2024/04/18 03:54:47;;;;;;;4.27;2.33;;;6.60;99.90;;;;;;4416217;26;20012;-59
2024/04/18 03:56:48;;;;;;;2.30;2.10;;;6.60;99.90;;;;;;4402437;26;20079;-62
2024/04/18 03:58:50;;;;;;;5.93;1.97;;;6.60;99.90;;;;;;4390544;26;20001;-60
2024/04/18 04:00:51;;;;;;;4.63;2.57;;;6.60;99.90;;;;;;4409389;26;20835;-60
2024/04/18 04:02:52;;;;;;;3.77;2.53;;;6.60;99.90;;;;;;4419457;26;20177;-61
2024/04/18 04:04:54;;;;;;;2.30;1.90;;;6.60;99.90;;;;;;4412827;26;20012;-60
2024/04/18 04:06:55;;;;;;;3.40;2.00;;;6.60;99.90;;;;;;4419198;26;20013;-60
2024/04/18 04:08:58;;;;;;;4.80;2.43;;;6.60;99.90;;;;;;4420967;26;20445;-60
2024/04/18 04:10:59;;;;;;;2.77;2.57;;;6.60;99.90;;;;;;4419348;26;20050;-61
2024/04/18 04:13:00;;;;;;;3.43;2.67;;;6.60;99.90;;;;;;4419582;26;20009;-60
2024/04/18 04:15:01;;;;;;;2.93;2.67;;;6.60;99.90;;;;;;4419070;26;20059;-56
2024/04/18 04:17:03;;;;;;;2.60;2.40;;;6.60;99.90;;;;;;4417874;26;20101;-60
2024/04/18 04:19:04;;;;;;;3.00;2.37;;;6.60;99.90;;;;;;4419728;26;20469;-60
2024/04/18 04:21:07;;;;;;;3.00;2.37;;;6.60;99.90;;;;;;4420183;26;20008;-60
2024/04/18 04:23:09;;;;;;;5.07;2.63;;;6.70;99.90;;;;;;4419709;26;20082;-59
2024/04/18 04:25:10;;;;;;;5.43;2.87;;;6.70;99.90;;;;;;4419684;26;20142;-59
2024/04/18 04:27:11;;;;;;;4.37;2.43;;;6.70;99.90;;;;;;4420413;26;20009;-60
2024/04/18 04:29:13;;;;;;;3.20;2.40;;;6.70;99.90;;;;;;4419435;26;20020;-59
2024/04/18 04:31:14;;;;;;;4.90;2.83;;;6.70;99.90;;;;;;4417748;26;20541;-60
2024/04/18 04:33:15;;;;;;;3.87;2.60;;;6.70;99.90;;;;;;4417171;26;20462;-59
2024/04/18 04:35:17;;;;;;;5.20;2.67;;;6.70;99.90;;;;;;4418087;26;20004;-60
2024/04/18 04:37:19;;;;;;;2.90;2.57;;;6.70;99.90;;;;;;4417442;26;20013;-60
2024/04/18 04:39:20;;;;;;;6.13;2.63;;;6.60;99.90;;;;;;4419282;26;20012;-60
2024/04/18 04:41:22;;;;;;;3.70;2.30;;;6.60;99.90;;;;;;4417760;26;20070;-60
2024/04/18 04:43:24;;;;;;;3.90;2.40;;;6.50;99.90;;;;;;4419210;26;20093;-59
2024/04/18 04:45:25;;;;;;;2.47;2.27;;;6.50;99.90;;;;;;4409751;26;20017;-58
2024/04/18 04:47:26;;;;;;;2.73;2.40;;;6.50;99.90;;;;;;4412352;26;20417;-61
2024/04/18 04:49:28;;;;;;;6.50;2.77;;;6.50;99.90;;;;;;4417636;26;20069;-60
2024/04/18 04:51:29;;;;;;;4.37;2.57;;;6.50;99.90;;;;;;4419381;26;20012;-60
2024/04/18 04:53:30;;;;;;;4.67;2.33;;;6.50;99.90;;;;;;4418952;26;20093;-59
2024/04/18 04:55:31;;;;;;;3.73;2.93;;;6.40;99.90;;;;;;4418240;26;20406;-60
2024/04/18 04:57:33;;;;;;;4.20;2.80;;;6.50;99.90;;;;;;4417386;26;20075;-58
2024/04/18 04:59:34;;;;;;;4.30;2.57;;;6.50;99.90;;;;;;4417860;26;20426;-58
2024/04/18 05:01:35;;;;;;;3.93;2.83;;;6.50;99.90;;;;;;4417885;26;20067;-59
2024/04/18 05:03:37;;;;;;;3.70;2.70;;;6.50;99.90;;;;;;4417922;26;20082;-59
2024/04/18 05:05:42;;;;;;;3.60;2.93;;;6.50;99.90;;;;;;4418659;26;20403;-58
2024/04/18 05:07:43;;;;;;;4.37;2.57;;;6.60;99.90;;;;;;4417014;26;20013;-59
2024/04/18 05:09:45;;;;;;;3.03;2.70;;;6.60;99.90;;;;;;4418512;26;20498;-59
2024/04/18 05:11:46;;;;;;;3.97;2.20;;;6.60;99.90;;;;;;4416533;26;20074;-60
2024/04/18 05:13:47;;;;;;;2.77;2.53;;;6.60;99.90;;;;;;4419726;26;20097;-60
2024/04/18 05:15:48;;;;;;;2.83;2.20;;;6.60;99.90;;;;;;4417179;26;20124;-59
2024/04/18 05:17:50;;;;;;;2.67;2.30;;;6.60;99.90;;;;;;4420256;26;20070;-59
2024/04/18 05:19:51;;;;;;;2.53;2.30;;;6.60;99.90;;;;;;4419253;26;20069;-58
2024/04/18 05:21:52;;;;;;;2.57;2.03;;;6.50;99.90;;;;;;4419698;26;20086;-60
2024/04/18 05:23:53;;;;;;;2.97;2.20;;;6.50;99.90;;;;;;4417934;26;19996;-60
2024/04/18 05:25:55;;;;;;;5.53;2.40;;;6.40;99.90;;;;;;4417738;26;20001;-60
2024/04/18 05:28:09;;;;;;;2.23;2.10;;;6.40;99.90;;;;;;4418964;26;20074;-58
2024/04/18 05:32:30;;;;;;;4.67;3.40;;;6.40;99.90;;;;;;4418550;26;20055;-57
2024/04/18 05:34:32;;;;;;;4.63;2.80;;;6.30;99.90;;;;;;4413931;26;20332;-58
2024/04/18 05:36:33;;;;;;;4.80;3.87;;;6.40;99.90;;;;;;4403263;26;20457;-58
2024/04/18 05:38:34;;;;;;;3.63;3.10;;;6.40;99.90;;;;;;4404285;26;20005;-59
2024/04/18 05:40:36;;;;;;;3.77;3.03;;;6.40;99.90;;;;;;4395258;26;20083;-59
2024/04/18 05:42:37;;;;;;;3.40;3.10;;;6.30;99.90;;;;;;4396679;26;20086;-58
2024/04/18 05:44:39;;;;;;;3.00;2.70;;;6.40;99.90;;;;;;4408490;26;20098;-60
2024/04/18 05:46:40;;;;;;;6.13;3.00;;;6.40;99.90;;;;;;4399602;26;20094;-60
2024/04/18 05:48:41;;;;;;;3.67;2.70;;;6.40;99.90;;;;;;4398687;26;20083;-58
2024/04/18 05:50:43;;;;;;;7.30;3.90;;;6.40;99.90;;;;;;4391761;26;20096;-55
2024/04/18 05:52:44;;;;;;;3.13;2.77;;;6.50;99.90;;;;;;4392818;26;20086;-58
2024/04/18 05:54:47;;;;;;;6.63;4.03;;;6.50;99.90;;;;;;4393588;26;20064;-58
2024/04/18 05:56:48;;;;;;;4.13;3.33;;;6.50;99.90;;;;;;4392198;26;20005;-59
2024/04/18 05:58:49;;;;;;;7.03;3.13;;;6.50;99.90;;;;;;4404812;26;20005;-59
2024/04/18 06:00:50;;;;;;;3.97;3.00;;;6.40;99.90;;;;;;4416205;26;20001;-59
2024/04/18 06:02:52;;;;;;;4.07;3.27;;;6.40;99.90;;;;;;4416744;26;20074;-59
2024/04/18 06:04:53;;;;;;;6.23;3.73;;;6.40;99.90;;;;;;4418133;26;20089;-60
2024/04/18 06:06:54;;;;;;;7.03;4.23;;;6.40;99.90;;;;;;4412737;26;20516;-60
2024/04/18 06:08:55;;;;;;;6.13;4.23;;;6.40;99.90;;;;;;4418004;26;20077;-59
2024/04/18 06:10:57;;;;;;;7.17;3.73;;;6.40;99.90;;;;;;4420687;26;20012;-60
2024/04/18 06:12:58;;;;;;;5.23;2.90;;;6.50;99.90;;;;;;4420305;26;20073;-60
2024/04/18 06:14:59;;;;;;;4.00;3.03;;;6.50;99.90;;;;;;4418578;26;20013;-60
2024/04/18 06:17:00;;;;;;;5.07;2.90;;;6.50;99.90;;;;;;4418030;26;20013;-59
2024/04/18 06:19:02;;;;;;;8.13;4.97;;;6.50;99.90;;;;;;4421726;26;20005;-57
2024/04/18 06:21:03;;;;;;;4.53;3.20;;;6.50;99.90;;;;;;4389999;27;20071;-57
2024/04/18 06:23:04;;;;;;;5.13;2.90;;;6.50;99.90;;;;;;4421477;26;20009;-59
2024/04/18 06:25:06;;;;;;;2.77;2.50;;;6.60;99.90;;;;;;4419113;26;20051;-57
2024/04/18 06:27:08;;;;;;;8.27;3.10;;;6.60;99.90;;;;;;4421739;26;19997;-59
2024/04/18 06:29:10;;;;;;;5.03;2.87;;;6.60;99.90;;;;;;4420462;26;20001;-58
2024/04/18 06:31:11;;;;;;;3.20;2.37;;;6.60;99.90;;;;;;4419846;26;20008;-54
2024/04/18 06:33:12;;;;;;;10.73;8.57;;;6.60;99.90;;;;;;4418408;26;20411;-58
2024/04/18 06:35:14;;;;;;;14.00;9.87;;;6.60;99.90;;;;;;4420620;26;20529;-59
2024/04/18 06:37:16;;;;;;;5.13;4.63;;;6.60;99.90;;;;;;4420565;26;20009;-57
2024/04/18 06:39:18;;;;;;;3.63;3.30;;;6.60;99.90;;;;;;4419994;26;20012;-61
2024/04/18 06:41:19;;;;;;;9.77;8.37;;;6.60;99.90;;;;;;4420242;26;20424;-60
2024/04/18 06:43:20;;;;;;;12.47;10.97;;;6.50;99.90;;;;;;4419762;26;20012;-60
2024/04/18 06:45:22;;;;;;;7.10;3.30;;;6.50;99.90;;;;;;4421406;26;20078;-59
2024/04/18 06:47:23;;;;;;;2.27;2.07;;;6.60;99.90;;;;;;4420390;26;20009;-59
2024/04/18 06:49:24;;;;;;;2.33;2.13;;;6.60;99.90;;;;;;4421294;26;20009;-59
2024/04/18 06:51:26;;;;;;;1.87;1.60;;;6.60;99.90;;;;;;4420438;26;20012;-60
2024/04/18 06:53:27;;;;;;;1.97;1.60;;;6.60;99.90;;;;;;4420920;26;20419;-57
2024/04/18 06:55:28;;;;;;;1.67;1.57;;;6.50;99.90;;;;;;4419860;26;20009;-60
2024/04/18 06:57:29;;;;;;;2.03;1.33;;;6.60;99.90;;;;;;4447682;26;20050;-61
2024/04/18 06:59:31;;;;;;;1.63;1.53;;;6.50;99.90;;;;;;4419884;26;20009;-60
2024/04/18 07:01:32;;;;;;;3.80;1.43;;;6.50;99.90;;;;;;4389945;27;20067;-60
2024/04/18 07:03:33;;;;;;;2.20;1.73;;;6.50;99.90;;;;;;4419441;26;20073;-60
2024/04/18 07:05:34;;;;;;;3.07;1.90;;;6.60;99.90;;;;;;4419833;26;20013;-59
2024/04/18 07:07:35;;;;;;;3.23;2.60;;;6.60;99.90;;;;;;4419542;26;20008;-58
2024/04/18 07:09:37;;;;;;;2.03;1.50;;;6.60;99.90;;;;;;4419116;26;20608;-58
2024/04/18 07:11:38;;;;;;;2.43;2.20;;;6.60;99.90;;;;;;4419372;26;20357;-54
2024/04/18 07:13:40;;;;;;;2.33;2.10;;;6.70;99.90;;;;;;4419269;26;20009;-60
2024/04/18 07:15:41;;;;;;;1.53;1.43;;;6.70;99.90;;;;;;4421498;26;20073;-59
2024/04/18 07:17:43;;;;;;;2.03;1.93;;;6.70;99.90;;;;;;4419646;26;20521;-59
2024/04/18 07:19:44;;;;;;;3.93;2.60;;;6.80;99.90;;;;;;4419078;26;20008;-57
2024/04/18 07:21:45;;;;;;;1.37;1.20;;;6.90;99.90;;;;;;4420028;26;19997;-59
2024/04/18 07:23:47;;;;;;;1.97;1.83;;;7.00;99.90;;;;;;4419888;26;20160;-57
2024/04/18 07:25:48;;;;;;;2.43;2.10;;;7.10;99.90;;;;;;4418535;26;20066;-58
2024/04/18 07:27:49;;;;;;;2.73;2.47;;;7.20;99.90;;;;;;4420842;26;20001;-60
2024/04/18 07:29:51;;;;;;;2.73;2.47;;;7.30;99.90;;;;;;4418982;26;20012;-59
2024/04/18 07:31:53;;;;;;;2.80;2.03;;;7.40;99.90;;;;;;4354000;26;20005;-60
2024/04/18 07:33:54;;;;;;;1.40;1.20;;;7.40;99.90;;;;;;4391108;26;20014;-53
2024/04/18 07:35:58;;;;;;;1.73;1.13;;;7.40;99.90;;;;;;4410864;26;20005;-58
2024/04/18 07:37:59;;;;;;;1.90;1.80;;;7.40;99.90;;;;;;4420592;26;20074;-57
2024/04/18 07:40:08;;;;;;;1.73;1.63;;;7.30;99.90;;;;;;4412163;26;20102;-59
2024/04/18 07:42:11;;;;;;;2.33;2.13;;;7.20;99.90;;;;;;4394472;26;20083;-58
2024/04/18 07:44:12;;;;;;;2.27;1.90;;;7.30;99.90;;;;;;4390756;27;20052;-61
2024/04/18 07:46:14;;;;;;;1.80;1.40;;;7.30;99.90;;;;;;4416451;26;20078;-59
2024/04/18 07:48:15;;;;;;;1.80;1.70;;;7.30;99.90;;;;;;4419412;26;20017;-59
2024/04/18 07:50:16;;;;;;;2.00;1.90;;;7.20;99.90;;;;;;4419734;26;20017;-55
2024/04/18 07:52:17;;;;;;;1.93;1.83;;;7.20;99.90;;;;;;4411328;26;20074;-58
2024/04/18 07:54:20;;;;;;;2.97;2.10;;;7.20;99.90;;;;;;4389732;27;20025;-58
2024/04/18 07:56:21;;;;;;;2.60;2.13;;;7.40;99.90;;;;;;4411966;26;20013;-58
2024/04/18 07:58:23;;;;;;;3.23;2.50;;;7.40;99.90;;;;;;4420071;26;20074;-59
2024/04/18 08:00:24;;;;;;;2.80;2.60;;;7.60;99.90;;;;;;4407867;26;20029;-59
2024/04/18 08:02:25;;;;;;;5.17;2.60;;;7.70;99.90;;;;;;4392088;27;20013;-58
2024/04/18 08:04:26;;;;;;;1.80;1.70;;;7.80;99.90;;;;;;4403420;26;20013;-58
2024/04/18 08:06:28;;;;;;;1.40;1.30;;;7.90;99.90;;;;;;4419878;26;20001;-59
2024/04/18 08:08:29;;;;;;;3.37;2.20;;;7.80;99.90;;;;;;4418132;26;20013;-59
2024/04/18 08:10:30;;;;;;;2.47;2.27;;;7.80;99.90;;;;;;4419005;26;20013;-58
2024/04/18 08:12:31;;;;;;;2.13;1.80;;;7.90;99.90;;;;;;4419302;26;20493;-59
2024/04/18 08:14:32;;;;;;;1.63;1.40;;;7.90;99.90;;;;;;4419443;26;20417;-60
2024/04/18 08:16:34;;;;;;;2.20;1.70;;;8.00;99.90;;;;;;4391938;26;20013;-57
2024/04/18 08:18:35;;;;;;;2.40;1.50;;;8.10;99.90;;;;;;4400847;26;20000;-59
2024/04/18 08:20:36;;;;;;;2.00;1.30;;;8.10;99.90;;;;;;4414587;26;20013;-58
2024/04/18 08:22:37;;;;;;;1.63;1.37;;;8.20;99.90;;;;;;4418258;26;20518;-60
2024/04/18 08:24:39;;;;;;;1.23;1.13;;;8.40;99.90;;;;;;4419122;26;20420;-58
2024/04/18 08:26:40;;;;;;;0.80;0.80;;;8.40;99.90;;;;;;4403839;26;20083;-59
2024/04/18 08:28:41;;;;;;;0.60;0.57;;;8.40;99.90;;;;;;4416364;26;20517;-59
2024/04/18 08:30:46;;;;;;;0.93;0.50;;;8.30;99.90;;;;;;4407435;26;20082;-59
2024/04/18 08:32:47;;;;;;;0.60;0.60;;;8.20;99.90;;;;;;4410541;26;20005;-56
2024/04/18 08:34:48;;;;;;;1.80;0.80;;;8.10;99.90;;;;;;4417185;26;20013;-58
2024/04/18 08:36:49;;;;;;;0.73;0.40;;;8.10;99.90;;;;;;4418384;26;20387;-59
2024/04/18 08:38:50;;;;;;;1.80;0.30;;;8.00;99.90;;;;;;4417952;26;20494;-59
2024/04/18 08:40:53;;;;;;;0.30;0.30;;;8.00;99.90;;;;;;4418858;26;20061;-59
2024/04/18 08:42:54;;;;;;;1.17;0.50;;;7.90;99.90;;;;;;4413864;26;20020;-58
2024/04/18 08:44:55;;;;;;;0.53;0.40;;;7.80;99.90;;;;;;4416771;26;20009;-58
2024/04/18 08:46:59;;;;;;;1.60;0.80;;;7.80;99.90;;;;;;4400150;26;20009;-59
2024/04/18 08:49:02;;;;;;;0.73;0.43;;;7.80;99.90;;;;;;4391407;26;20013;-59
2024/04/18 08:51:06;;;;;;;0.83;0.50;;;7.90;99.90;;;;;;4390733;26;20056;-59
2024/04/18 08:53:10;;;;;;;0.40;0.30;;;8.00;99.90;;;;;;4389136;27;20068;-59
2024/04/18 08:55:11;;;;;;;1.00;0.80;;;8.10;99.90;;;;;;4405304;26;20444;-58
2024/04/18 08:57:19;;;;;;;1.60;0.83;;;8.20;99.90;;;;;;4391154;27;20013;-59
2024/04/18 08:59:22;;;;;;;2.63;0.60;;;8.30;99.90;;;;;;4403892;26;20410;-58
2024/04/18 09:01:24;;;;;;;2.00;1.00;;;8.30;99.90;;;;;;4409198;26;20074;-59
2024/04/18 09:03:26;;;;;;;0.83;0.33;;;8.40;99.90;;;;;;4419626;26;20009;-55
2024/04/18 09:05:28;;;;;;;2.90;2.03;;;8.40;99.90;;;;;;4418316;26;20013;-58
2024/04/18 09:07:29;;;;;;;2.10;0.67;;;8.40;99.90;;;;;;4395559;26;22065;-56
2024/04/18 09:09:30;;;;;;;1.33;1.00;;;8.30;99.90;;;;;;4394258;26;20405;-59
2024/04/18 09:11:31;;;;;;;1.60;0.40;;;8.30;99.90;;;;;;4418845;26;20078;-59
2024/04/18 09:13:34;;;;;;;1.93;0.70;;;8.20;99.90;;;;;;4418437;26;20009;-59
2024/04/18 09:15:36;;;;;;;0.50;0.30;;;8.30;99.90;;;;;;4393910;26;20010;-58
2024/04/18 09:17:37;;;;;;;1.60;0.30;;;8.40;99.90;;;;;;4392360;26;20014;-59
2024/04/18 09:19:38;;;;;;;0.40;0.20;;;8.40;99.90;;;;;;4407607;26;20003;-56
2024/04/18 09:21:40;;;;;;;1.43;0.20;;;8.60;99.90;;;;;;4390454;27;20079;-58
2024/04/18 09:23:42;;;;;;;2.30;0.37;;;8.70;99.90;;;;;;4389779;27;20005;-59
2024/04/18 09:25:43;;;;;;;1.60;0.20;;;8.70;99.90;;;;;;4391464;27;20013;-59
2024/04/18 09:27:46;;;;;;;1.90;1.07;;;8.70;99.90;;;;;;4389735;27;20384;-59
2024/04/18 09:29:48;;;;;;;2.10;0.80;;;8.60;99.90;;;;;;4393912;26;20078;-58
2024/04/18 09:31:51;;;;;;;2.77;0.90;;;8.60;99.90;;;;;;4418931;26;20012;-57
2024/04/18 09:33:52;;;;;;;0.40;0.20;;;8.60;99.90;;;;;;4419407;26;20013;-61
2024/04/18 09:36:00;;;;;;;0.20;0.00;;;8.70;99.90;;;;;;4389972;26;20010;-59
2024/04/18 09:38:02;;;;;;;1.13;0.17;;;8.70;99.90;;;;;;4392047;27;20013;-59
2024/04/18 09:40:05;;;;;;;0.17;0.10;;;8.80;99.90;;;;;;4389749;27;20511;-58
2024/04/18 09:42:12;;;;;;;2.80;0.70;;;8.80;99.90;;;;;;4390718;27;20075;-59
2024/04/18 09:44:21;;;;;;;1.47;0.60;;;8.90;99.90;;;;;;4401681;26;20090;-59
2024/04/18 09:46:23;;;;;;;0.70;0.20;;;8.90;99.90;;;;;;4409639;26;20016;-59
2024/04/18 09:48:26;;;;;;;1.43;0.40;;;8.90;99.90;;;;;;4417962;26;20005;-59
2024/04/18 09:50:29;;;;;;;0.83;0.67;;;8.70;99.90;;;;;;4400193;26;20025;-57
2024/04/18 09:52:31;;;;;;;0.50;0.30;;;8.50;99.90;;;;;;4401750;26;20081;-58
2024/04/18 09:54:33;;;;;;;3.43;0.40;;;8.30;99.90;;;;;;4417627;26;20004;-57
2024/04/18 09:56:35;;;;;;;2.67;1.07;;;8.20;99.90;;;;;;4418503;26;20415;-59
2024/04/18 09:58:37;;;;;;;0.63;0.40;;;8.20;99.90;;;;;;4417884;26;20001;-59
2024/04/18 10:00:39;;;;;;;0.50;0.40;;;8.20;99.90;;;;;;4396757;26;20014;-60
2024/04/18 10:02:42;;;;;;;0.37;0.10;;;8.20;99.90;;;;;;4399515;26;20078;-59
2024/04/18 10:04:44;;;;;;;0.57;0.40;;;8.10;99.90;;;;;;4419209;26;20087;-59
2024/04/18 10:06:48;;;;;;;0.87;0.30;;;8.20;99.90;;;;;;4401339;26;20002;-56
2024/04/18 10:08:52;;;;;;;0.50;0.40;;;8.10;99.90;;;;;;4398482;26;20100;-60
2024/04/18 10:10:54;;;;;;;2.70;0.40;;;8.20;99.90;;;;;;4392786;26;20013;-59
2024/04/18 10:12:56;;;;;;;2.87;1.07;;;8.10;99.90;;;;;;4401580;26;20044;-59
2024/04/18 10:14:58;;;;;;;2.03;0.40;;;7.90;99.90;;;;;;4406624;26;20475;-57
2024/04/18 10:17:00;;;;;;;1.43;0.40;;;7.80;99.90;;;;;;4390138;27;20601;-59
2024/04/18 10:19:13;;;;;;;1.33;0.90;;;7.70;99.90;;;;;;4389857;27;20890;-58
2024/04/18 10:21:16;;;;;;;3.10;0.80;;;7.70;99.90;;;;;;4417344;26;20498;-55
2024/04/18 10:23:21;;;;;;;1.53;0.60;;;7.70;99.90;;;;;;4415678;26;20083;-59
2024/04/18 10:25:23;;;;;;;1.77;0.37;;;7.80;99.90;;;;;;4403194;26;20079;-58
2024/04/18 10:27:24;;;;;;;1.80;0.47;;;7.80;99.90;;;;;;4406497;26;20082;-57
2024/04/18 10:29:26;;;;;;;1.57;0.20;;;7.60;99.90;;;;;;4417872;26;20100;-60
2024/04/18 10:31:29;;;;;;;0.90;0.43;;;7.50;99.90;;;;;;4415926;26;20134;-59
2024/04/18 10:33:32;;;;;;;2.20;0.30;;;7.40;99.90;;;;;;4416486;26;20073;-59
2024/04/18 10:35:34;;;;;;;0.50;0.20;;;7.40;99.90;;;;;;4415477;26;20156;-60
2024/04/18 10:37:36;;;;;;;0.40;0.30;;;7.30;99.90;;;;;;4410758;26;20004;-61
2024/04/18 10:39:40;;;;;;;1.33;0.30;;;7.30;99.90;;;;;;4413149;26;20071;-61
2024/04/18 10:41:47;;;;;;;1.17;0.37;;;7.30;99.90;;;;;;4404638;26;20109;-60
2024/04/18 10:43:49;;;;;;;0.33;0.20;;;7.30;99.90;;;;;;4417466;26;20475;-59
2024/04/18 10:45:53;;;;;;;0.80;0.27;;;7.10;99.90;;;;;;4417143;26;20160;-58